Time;durP1;ratioP1;P1;durP2;ratioP2;P2;SDS_P1;SDS_P2;PMS_P1;PMS_P2;Temp;Humidity;BMP_temperature;BMP_pressure;BME280_temperature;BME280_humidity;BME280_pressure;Samples;Min_cycle;Max_cycle;Signal;HPM_P1;HPM_P2
2022/04/04 00:02:22;;;;;;;2.88;2.00;;;23.80;95.40;;;;;;5050305;28;20055;-68
2022/04/04 00:04:49;;;;;;;8.48;6.82;;;24.00;95.10;;;;;;5043086;28;20112;-65
2022/04/04 00:07:16;;;;;;;4.93;2.88;;;24.10;95.20;;;;;;5035732;28;20025;-66
2022/04/04 00:09:43;;;;;;;3.83;1.60;;;24.20;94.10;;;;;;5047842;28;20033;-64
2022/04/04 00:12:10;;;;;;;2.63;1.58;;;24.50;93.20;;;;;;5046859;28;20032;-64
2022/04/04 00:14:37;;;;;;;2.50;1.60;;;24.60;93.10;;;;;;5043513;28;20051;-67
2022/04/04 00:17:05;;;;;;;1.85;1.20;;;24.80;92.80;;;;;;5045925;28;20377;-70
2022/04/04 00:19:33;;;;;;;3.17;1.42;;;25.10;92.00;;;;;;5048051;28;20390;-67
2022/04/04 00:22:00;;;;;;;2.35;1.08;;;25.20;91.40;;;;;;5044984;28;20029;-66
2022/04/04 00:24:27;;;;;;;3.33;1.30;;;25.40;90.30;;;;;;5049650;28;20029;-66
2022/04/04 00:26:54;;;;;;;2.72;1.20;;;25.50;91.60;;;;;;5047932;28;20017;-68
2022/04/04 00:29:21;;;;;;;4.40;1.50;;;25.80;92.90;;;;;;5045644;28;20021;-70
2022/04/04 00:31:48;;;;;;;3.22;1.33;;;25.80;92.80;;;;;;5047529;28;20024;-65
2022/04/04 00:34:15;;;;;;;4.55;0.95;;;26.00;92.60;;;;;;5049721;28;20479;-67
2022/04/04 00:36:43;;;;;;;4.35;1.48;;;26.10;91.80;;;;;;5049413;28;20037;-70
2022/04/04 00:39:19;;;;;;;2.35;1.45;;;26.20;90.90;;;;;;5049424;28;20025;-65
2022/04/04 00:41:49;;;;;;;5.13;2.05;;;26.30;90.80;;;;;;5050089;28;20035;-69
2022/04/04 00:44:16;;;;;;;4.38;2.67;;;26.40;89.80;;;;;;5047084;28;20483;-68
2022/04/04 00:46:44;;;;;;;4.32;3.42;;;26.50;88.20;;;;;;5046794;28;20128;-69
2022/04/04 00:49:11;;;;;;;3.22;1.52;;;26.70;87.60;;;;;;5060162;28;20024;-65
2022/04/04 00:51:39;;;;;;;4.47;1.13;;;26.80;89.50;;;;;;5051741;28;20107;-65
2022/04/04 00:54:07;;;;;;;1.48;0.98;;;26.80;87.90;;;;;;5049587;28;20044;-64
2022/04/04 00:56:36;;;;;;;2.55;1.27;;;26.60;87.30;;;;;;5047689;28;20365;-68
2022/04/04 00:59:05;;;;;;;2.72;1.30;;;26.80;87.50;;;;;;5046934;28;20040;-68
2022/04/04 01:01:33;;;;;;;4.72;1.30;;;26.90;86.20;;;;;;5048621;28;20017;-70
2022/04/04 01:04:01;;;;;;;3.40;1.27;;;27.00;83.50;;;;;;5046773;28;20051;-68
2022/04/04 01:06:28;;;;;;;2.92;1.40;;;27.20;84.70;;;;;;5047629;28;20009;-69
2022/04/04 01:08:55;;;;;;;3.83;1.52;;;27.20;82.80;;;;;;5053966;28;20504;-67
2022/04/04 01:11:22;;;;;;;2.00;1.23;;;27.30;83.70;;;;;;5050278;28;20025;-68
2022/04/04 01:13:50;;;;;;;5.10;1.30;;;27.70;83.40;;;;;;5049017;28;20044;-65
2022/04/04 01:16:17;;;;;;;2.28;1.10;;;27.90;80.10;;;;;;5047746;28;20021;-69
2022/04/04 01:18:44;;;;;;;5.10;1.27;;;28.00;80.40;;;;;;5053532;28;20049;-66
2022/04/04 01:21:11;;;;;;;3.20;1.42;;;28.00;78.00;;;;;;5053933;28;20023;-67
2022/04/04 01:23:43;;;;;;;3.05;1.02;;;28.00;78.00;;;;;;5048018;28;20075;-70
2022/04/04 01:26:11;;;;;;;2.17;1.33;;;28.00;78.10;;;;;;5048896;28;20025;-68
2022/04/04 01:28:39;;;;;;;2.35;1.10;;;28.10;75.80;;;;;;5053182;28;20488;-66
2022/04/04 01:31:07;;;;;;;3.03;1.35;;;28.10;77.50;;;;;;5049344;28;20128;-69
2022/04/04 01:33:34;;;;;;;4.00;1.15;;;28.20;77.10;;;;;;5048967;28;20033;-66
2022/04/04 01:36:01;;;;;;;5.85;1.38;;;28.20;75.30;;;;;;5047316;28;20287;-69
2022/04/04 01:38:28;;;;;;;10.65;8.60;;;28.30;76.50;;;;;;5052298;28;20044;-66
2022/04/04 01:40:55;;;;;;;5.03;3.03;;;28.60;77.20;;;;;;5044353;28;20055;-71
2022/04/04 01:43:22;;;;;;;5.10;1.63;;;28.80;75.20;;;;;;5044951;28;20395;-72
2022/04/04 01:48:38;;;;;;;3.22;1.42;;;29.00;74.00;;;;;;5047187;28;20402;-67
2022/04/04 01:51:05;;;;;;;2.92;1.52;;;28.80;72.30;;;;;;5051853;28;20025;-65
2022/04/04 01:53:33;;;;;;;3.05;1.50;;;28.90;73.90;;;;;;5045046;28;20148;-75
2022/04/04 01:56:03;;;;;;;1.77;1.13;;;29.10;73.00;;;;;;5049131;28;20029;-74
2022/04/04 01:58:31;;;;;;;2.88;1.58;;;29.40;73.00;;;;;;5045986;28;20045;-68
2022/04/04 02:01:01;;;;;;;2.35;1.30;;;29.40;71.50;;;;;;5051891;28;20075;-71
2022/04/04 02:03:29;;;;;;;3.20;1.10;;;29.40;69.60;;;;;;5051640;28;20533;-71
2022/04/04 02:05:56;;;;;;;1.70;1.00;;;29.40;70.10;;;;;;5049971;28;20084;-70
2022/04/04 02:08:23;;;;;;;3.58;1.17;;;29.60;69.70;;;;;;5056643;28;20025;-71
2022/04/04 02:10:50;;;;;;;1.85;1.20;;;29.60;68.80;;;;;;5055057;28;20064;-67
2022/04/04 02:13:17;;;;;;;1.95;0.93;;;29.70;68.80;;;;;;5053749;28;20039;-65
2022/04/04 02:15:44;;;;;;;2.08;1.30;;;29.70;68.80;;;;;;5058097;28;20028;-66
2022/04/04 02:18:11;;;;;;;1.95;1.20;;;29.70;66.90;;;;;;5057110;28;20029;-70
2022/04/04 02:20:38;;;;;;;3.20;1.10;;;29.70;67.60;;;;;;5053975;28;20748;-69
2022/04/04 02:23:05;;;;;;;2.03;1.20;;;29.60;68.20;;;;;;5054244;28;20055;-68
2022/04/04 02:25:32;;;;;;;3.65;1.33;;;29.60;69.80;;;;;;5056342;28;20123;-67
2022/04/04 02:27:59;;;;;;;4.03;1.30;;;29.50;66.40;;;;;;5053390;28;20032;-70
2022/04/04 02:30:26;;;;;;;2.47;1.40;;;29.60;66.00;;;;;;5050411;28;20036;-73
2022/04/04 02:32:53;;;;;;;2.90;1.20;;;29.60;65.70;;;;;;5051940;28;20049;-67
2022/04/04 02:35:20;;;;;;;2.00;1.00;;;29.60;65.60;;;;;;5053841;28;20029;-69
2022/04/04 02:37:47;;;;;;;3.60;1.25;;;29.80;67.60;;;;;;5052539;28;20563;-71
2022/04/04 02:40:15;;;;;;;1.48;1.00;;;30.00;66.70;;;;;;5051918;28;20017;-69
2022/04/04 02:42:42;;;;;;;4.55;1.33;;;30.20;66.30;;;;;;5050790;28;20044;-70
2022/04/04 02:45:09;;;;;;;2.85;1.17;;;30.20;65.50;;;;;;5053759;28;20032;-68
2022/04/04 02:47:36;;;;;;;8.23;1.30;;;30.20;63.90;;;;;;5046852;28;20024;-66
2022/04/04 02:50:04;;;;;;;3.55;1.02;;;30.00;62.90;;;;;;5052648;28;20040;-68
2022/04/04 02:52:31;;;;;;;2.58;1.27;;;30.00;64.70;;;;;;5050189;28;20463;-73
2022/04/04 02:54:58;;;;;;;4.50;1.45;;;30.10;63.60;;;;;;5052417;28;20029;-67
2022/04/04 02:57:25;;;;;;;1.98;1.10;;;30.50;63.60;;;;;;5057065;28;20035;-72
2022/04/04 02:59:52;;;;;;;2.88;1.25;;;30.30;63.00;;;;;;5052234;28;20067;-66
2022/04/04 03:02:19;;;;;;;2.00;0.90;;;30.40;63.70;;;;;;5051313;28;20033;-69
2022/04/04 03:04:46;;;;;;;3.45;1.10;;;30.60;64.60;;;;;;5051986;28;20090;-74
2022/04/04 03:07:13;;;;;;;2.15;0.90;;;30.60;61.60;;;;;;5058381;28;20505;-74
2022/04/04 03:09:41;;;;;;;2.38;1.00;;;30.80;62.10;;;;;;5054853;28;20036;-71
2022/04/04 03:12:08;;;;;;;2.97;1.08;;;31.10;61.50;;;;;;5050108;28;20025;-71
2022/04/04 03:14:35;;;;;;;1.83;0.90;;;31.10;57.40;;;;;;5046694;28;20053;-74
2022/04/04 03:17:03;;;;;;;4.63;3.05;;;31.10;57.90;;;;;;5046099;28;20033;-71
2022/04/04 03:19:30;;;;;;;7.90;4.43;;;31.10;58.00;;;;;;5051411;28;20123;-68
2022/04/04 03:21:57;;;;;;;2.30;1.33;;;31.30;58.30;;;;;;5045786;28;20037;-67
2022/04/04 03:24:24;;;;;;;2.40;1.20;;;31.30;58.60;;;;;;5052096;28;20040;-67
2022/04/04 03:26:51;;;;;;;3.25;1.27;;;31.40;58.70;;;;;;5055336;28;20841;-69
2022/04/04 03:29:19;;;;;;;5.95;1.70;;;31.80;57.50;;;;;;5052371;28;20815;-71
2022/04/04 03:31:46;;;;;;;2.67;1.48;;;31.60;57.50;;;;;;5042073;28;20029;-69
2022/04/04 03:34:13;;;;;;;3.55;1.08;;;31.50;56.20;;;;;;5049682;28;20754;-67
2022/04/04 03:36:40;;;;;;;5.30;1.45;;;31.40;56.70;;;;;;5053106;28;20038;-73
2022/04/04 03:39:07;;;;;;;2.10;0.90;;;31.10;56.80;;;;;;5055581;28;20735;-74
2022/04/04 03:41:35;;;;;;;2.88;1.10;;;30.90;56.60;;;;;;5052607;28;20060;-67
2022/04/04 03:44:02;;;;;;;1.42;0.93;;;30.90;56.90;;;;;;5056039;28;20497;-73
2022/04/04 03:46:29;;;;;;;1.95;1.02;;;30.90;57.80;;;;;;4700907;28;9999844;-72
2022/04/04 03:48:57;;;;;;;1.83;0.80;;;30.70;56.50;;;;;;5052366;28;20140;-71
2022/04/04 03:51:24;;;;;;;4.18;1.02;;;30.90;56.60;;;;;;5049434;28;20029;-68
2022/04/04 03:53:51;;;;;;;3.42;1.92;;;30.80;56.30;;;;;;5050956;28;20145;-71
2022/04/04 03:56:18;;;;;;;6.32;1.08;;;30.90;54.50;;;;;;5053952;28;20024;-70
2022/04/04 03:58:45;;;;;;;1.52;0.80;;;31.00;55.10;;;;;;5049463;28;20472;-70
2022/04/04 04:01:12;;;;;;;8.60;1.35;;;31.00;55.40;;;;;;5051398;28;20031;-69
2022/04/04 04:03:39;;;;;;;1.77;1.02;;;31.20;55.30;;;;;;5053778;28;20028;-70
2022/04/04 04:06:12;;;;;;;3.65;0.93;;;31.00;54.90;;;;;;5048657;28;20124;-70
2022/04/04 04:08:41;;;;;;;6.57;1.13;;;30.70;56.50;;;;;;5051700;28;20024;-67
2022/04/04 04:11:08;;;;;;;2.50;0.73;;;30.90;54.40;;;;;;5052885;28;20029;-71
2022/04/04 04:13:36;;;;;;;3.30;1.23;;;30.90;53.00;;;;;;5053193;28;20502;-73
2022/04/04 04:16:03;;;;;;;2.97;1.02;;;30.90;54.60;;;;;;5048445;28;20499;-70
2022/04/04 04:18:31;;;;;;;2.97;1.00;;;31.00;53.80;;;;;;5050433;28;20029;-67
2022/04/04 04:20:58;;;;;;;2.45;1.00;;;30.90;53.80;;;;;;5051794;28;20139;-71
2022/04/04 04:23:25;;;;;;;3.17;1.00;;;30.90;55.00;;;;;;5065569;28;20136;-74
2022/04/04 04:25:52;;;;;;;1.13;0.73;;;31.00;55.10;;;;;;5050122;28;20440;-70
2022/04/04 04:28:19;;;;;;;1.10;0.70;;;31.00;52.90;;;;;;5045927;28;20021;-73
2022/04/04 04:30:46;;;;;;;3.47;0.77;;;30.90;51.90;;;;;;5050068;28;20024;-69
2022/04/04 04:33:13;;;;;;;5.75;1.25;;;31.10;52.50;;;;;;5049456;28;20063;-70
2022/04/04 04:35:40;;;;;;;3.38;1.00;;;31.20;55.30;;;;;;5048462;28;20028;-69
2022/04/04 04:38:08;;;;;;;6.95;1.52;;;30.90;50.70;;;;;;5046930;28;20062;-72
2022/04/04 04:40:35;;;;;;;3.38;1.15;;;30.60;52.70;;;;;;5050680;28;20036;-73
2022/04/04 04:43:02;;;;;;;9.25;1.42;;;30.80;52.90;;;;;;5048667;28;20044;-70
2022/04/04 04:45:29;;;;;;;9.75;1.25;;;30.90;51.10;;;;;;5054363;28;20067;-72
2022/04/04 04:47:56;;;;;;;4.28;0.90;;;30.60;50.50;;;;;;5046186;28;20037;-73
2022/04/04 04:50:25;;;;;;;3.28;0.95;;;30.70;50.20;;;;;;5043249;28;20021;-72
2022/04/04 04:52:52;;;;;;;1.90;0.88;;;30.70;50.80;;;;;;5041872;28;20108;-73
2022/04/04 04:55:21;;;;;;;4.28;0.95;;;30.70;50.00;;;;;;5051267;28;20012;-69
2022/04/04 04:57:49;;;;;;;5.32;1.05;;;30.90;51.10;;;;;;5048431;28;20526;-73
2022/04/04 05:00:18;;;;;;;4.20;1.02;;;31.10;50.40;;;;;;5045846;28;20096;-73
2022/04/04 05:02:45;;;;;;;3.63;1.10;;;31.10;51.40;;;;;;5039927;28;20033;-72
2022/04/04 05:05:12;;;;;;;2.58;0.90;;;31.00;50.90;;;;;;5050183;28;20090;-67
2022/04/04 05:07:39;;;;;;;2.25;1.20;;;30.90;50.80;;;;;;5046964;28;20024;-66
2022/04/04 05:10:06;;;;;;;4.72;1.17;;;30.90;50.20;;;;;;5047446;28;20047;-69
2022/04/04 05:12:33;;;;;;;2.22;0.98;;;31.00;50.80;;;;;;5044157;28;20783;-74
2022/04/04 05:15:00;;;;;;;3.72;1.00;;;30.80;50.10;;;;;;5048157;28;20433;-66
2022/04/04 05:17:27;;;;;;;5.30;1.10;;;30.90;50.20;;;;;;5047928;28;20039;-71
2022/04/04 05:19:54;;;;;;;12.50;1.63;;;31.10;50.90;;;;;;5047938;28;20475;-73
2022/04/04 05:22:21;;;;;;;5.53;1.05;;;31.00;50.00;;;;;;5046746;28;20029;-72
2022/04/04 05:24:48;;;;;;;5.40;1.00;;;31.00;50.20;;;;;;5041953;28;20017;-73
2022/04/04 05:27:16;;;;;;;3.35;1.20;;;30.80;50.40;;;;;;5047042;28;20028;-74
2022/04/04 05:29:43;;;;;;;2.67;0.80;;;30.40;50.30;;;;;;5041485;28;20471;-73
2022/04/04 05:32:10;;;;;;;3.85;1.00;;;29.90;51.00;;;;;;5045517;28;20035;-72
2022/04/04 05:34:36;;;;;;;2.78;1.60;;;29.80;52.10;;;;;;5042869;28;20031;-74
2022/04/04 05:37:04;;;;;;;8.27;1.98;;;30.00;52.50;;;;;;5049156;28;20037;-70
2022/04/04 05:39:30;;;;;;;2.92;1.13;;;30.10;51.90;;;;;;5050295;28;20685;-75
2022/04/04 05:41:58;;;;;;;1.70;0.90;;;30.20;51.20;;;;;;5045182;28;20044;-76
2022/04/04 05:44:26;;;;;;;3.63;1.48;;;30.40;51.00;;;;;;5048140;28;20017;-71
2022/04/04 05:46:53;;;;;;;2.38;0.90;;;30.50;51.10;;;;;;5047890;28;20060;-72
2022/04/04 05:49:20;;;;;;;1.92;0.80;;;30.30;51.50;;;;;;5042502;28;20033;-71
2022/04/04 05:51:48;;;;;;;2.15;1.10;;;30.30;50.40;;;;;;5044837;28;20032;-72
2022/04/04 05:54:15;;;;;;;1.77;0.98;;;30.20;50.70;;;;;;5044809;28;20059;-73
2022/04/04 05:56:44;;;;;;;3.22;1.05;;;30.20;51.90;;;;;;5045736;28;20061;-71
2022/04/04 05:59:13;;;;;;;4.80;2.00;;;30.30;51.00;;;;;;5044333;28;20037;-71
2022/04/04 06:01:41;;;;;;;3.78;1.20;;;30.30;52.60;;;;;;5041628;28;20029;-72
2022/04/04 06:04:08;;;;;;;5.78;1.02;;;30.50;50.60;;;;;;5043620;28;20020;-70
2022/04/04 06:06:35;;;;;;;4.10;1.10;;;30.40;50.80;;;;;;5042272;28;20025;-75
2022/04/04 06:09:02;;;;;;;5.07;0.80;;;30.30;49.70;;;;;;5044901;28;20029;-71
2022/04/04 06:11:29;;;;;;;3.75;1.00;;;30.20;50.60;;;;;;5044546;28;20028;-75
2022/04/04 06:13:57;;;;;;;3.40;1.17;;;30.50;51.40;;;;;;5044613;28;20958;-69
2022/04/04 06:16:25;;;;;;;6.60;1.05;;;30.80;49.60;;;;;;5041698;28;20143;-69
2022/04/04 06:18:53;;;;;;;4.00;1.10;;;31.10;49.10;;;;;;5043998;28;20021;-69
2022/04/04 06:21:20;;;;;;;3.83;0.90;;;31.40;49.90;;;;;;5043094;28;20028;-70
2022/04/04 06:23:46;;;;;;;2.97;0.90;;;31.60;49.90;;;;;;5044143;28;20529;-68
2022/04/04 06:26:14;;;;;;;4.35;0.88;;;31.60;49.90;;;;;;5043137;28;20769;-73
2022/04/04 06:28:41;;;;;;;4.93;0.88;;;31.70;49.10;;;;;;5043820;28;20025;-66
2022/04/04 06:31:08;;;;;;;3.72;0.85;;;31.60;48.40;;;;;;5044106;28;20053;-73
2022/04/04 06:33:35;;;;;;;1.98;0.95;;;31.70;48.60;;;;;;5048243;28;20033;-71
2022/04/04 06:36:02;;;;;;;2.83;0.65;;;31.70;48.60;;;;;;5045682;28;20395;-70
2022/04/04 06:38:29;;;;;;;3.15;1.33;;;31.80;48.60;;;;;;5048977;28;20045;-72
2022/04/04 06:40:59;;;;;;;2.38;0.90;;;31.70;48.90;;;;;;5049776;28;20155;-71
2022/04/04 06:43:26;;;;;;;6.05;0.88;;;31.00;50.50;;;;;;5048893;28;20056;-74
2022/04/04 06:45:53;;;;;;;5.25;1.10;;;30.80;48.80;;;;;;5046280;28;20029;-71
2022/04/04 06:48:21;;;;;;;3.55;0.98;;;30.40;50.70;;;;;;5046397;28;20025;-69
2022/04/04 06:50:48;;;;;;;4.47;1.08;;;30.60;51.00;;;;;;5046138;28;20124;-75
2022/04/04 06:53:15;;;;;;;6.25;1.10;;;30.50;51.80;;;;;;5046498;28;20076;-71
2022/04/04 06:55:44;;;;;;;4.78;1.05;;;30.60;52.40;;;;;;5053682;28;20029;-69
2022/04/04 06:58:11;;;;;;;3.88;0.93;;;30.90;49.60;;;;;;5046945;28;20112;-68
2022/04/04 07:00:38;;;;;;;4.18;1.10;;;31.10;49.20;;;;;;5047603;28;20037;-68
2022/04/04 07:03:08;;;;;;;3.95;1.17;;;31.10;49.20;;;;;;5045752;28;20036;-69
2022/04/04 07:05:35;;;;;;;6.38;1.08;;;31.00;50.90;;;;;;5042310;28;20021;-69
2022/04/04 07:08:02;;;;;;;9.50;1.48;;;30.90;50.80;;;;;;5043662;28;20132;-74
2022/04/04 07:10:29;;;;;;;10.68;1.33;;;30.90;51.30;;;;;;5042776;28;20063;-69
2022/04/04 07:12:56;;;;;;;6.22;1.35;;;30.70;51.80;;;;;;5046219;28;20570;-69
2022/04/04 07:15:23;;;;;;;2.58;1.02;;;30.50;52.10;;;;;;5048467;28;20051;-69
2022/04/04 07:17:50;;;;;;;4.07;1.20;;;30.60;51.40;;;;;;5044518;28;20058;-69
2022/04/04 07:20:19;;;;;;;5.20;1.50;;;30.40;51.00;;;;;;5049503;28;20480;-68
2022/04/04 07:22:46;;;;;;;3.15;1.45;;;30.00;51.60;;;;;;5047371;28;20090;-69
2022/04/04 07:25:14;;;;;;;4.53;2.38;;;29.50;54.80;;;;;;5046260;28;20067;-68
2022/04/04 07:27:43;;;;;;;11.07;3.78;;;29.20;57.30;;;;;;5045299;28;20476;-69
2022/04/04 07:30:12;;;;;;;7.00;2.15;;;29.00;54.30;;;;;;5045680;28;20028;-69
2022/04/04 07:32:39;;;;;;;4.75;1.50;;;28.60;55.30;;;;;;5045890;28;20083;-69
2022/04/04 07:35:11;;;;;;;8.85;2.70;;;28.40;58.10;;;;;;5044719;28;20060;-67
2022/04/04 07:37:39;;;;;;;3.70;1.85;;;28.10;56.50;;;;;;5046118;28;20079;-73
2022/04/04 07:40:07;;;;;;;4.57;1.60;;;27.70;59.00;;;;;;5043568;28;20440;-67
2022/04/04 07:42:34;;;;;;;3.65;1.60;;;27.10;61.80;;;;;;5045879;28;20033;-68
2022/04/04 07:45:01;;;;;;;5.72;1.30;;;26.30;59.80;;;;;;5045089;28;20033;-70
2022/04/04 07:47:28;;;;;;;2.03;1.00;;;25.70;62.20;;;;;;5045718;28;20027;-70
2022/04/04 07:49:55;;;;;;;4.75;1.30;;;25.30;62.90;;;;;;5044497;28;20037;-67
2022/04/04 07:52:22;;;;;;;2.17;1.30;;;25.30;63.50;;;;;;5043937;28;20513;-68
2022/04/04 07:54:49;;;;;;;4.10;1.27;;;25.00;63.80;;;;;;5043764;28;20107;-66
2022/04/04 07:57:17;;;;;;;3.38;1.27;;;24.70;65.40;;;;;;5043151;28;20159;-70
2022/04/04 07:59:44;;;;;;;9.10;5.65;;;24.20;64.50;;;;;;5042635;28;20769;-65
2022/04/04 08:02:11;;;;;;;5.90;2.97;;;23.90;66.10;;;;;;5042375;28;20495;-69
2022/04/04 08:04:38;;;;;;;5.07;1.90;;;23.90;68.50;;;;;;5043685;28;20040;-71
2022/04/04 08:07:06;;;;;;;2.90;1.48;;;23.80;67.30;;;;;;5041110;28;20029;-69
2022/04/04 08:09:33;;;;;;;4.10;1.65;;;23.80;67.90;;;;;;5042798;28;20025;-69
2022/04/04 08:12:00;;;;;;;4.45;1.27;;;23.60;68.40;;;;;;5044130;28;20108;-64
2022/04/04 08:14:27;;;;;;;2.10;1.30;;;23.60;68.20;;;;;;4345618;28;10000850;-68
2022/04/04 08:16:54;;;;;;;3.90;1.20;;;23.50;69.50;;;;;;5040125;28;20258;-67
2022/04/04 08:19:21;;;;;;;1.63;0.85;;;23.40;69.20;;;;;;5040064;28;20427;-70
2022/04/04 08:21:48;;;;;;;6.55;2.53;;;23.30;69.10;;;;;;5040426;28;20098;-65
2022/04/04 08:24:16;;;;;;;6.07;2.22;;;23.20;69.40;;;;;;5041363;28;20447;-72
2022/04/04 08:26:43;;;;;;;7.45;2.13;;;23.10;71.30;;;;;;5041235;28;20457;-73
2022/04/04 08:29:10;;;;;;;10.30;2.90;;;23.00;71.00;;;;;;5042125;28;20025;-72
2022/04/04 08:31:39;;;;;;;27.98;8.27;;;23.00;73.60;;;;;;5058852;28;20330;-72
2022/04/04 08:34:07;;;;;;;12.18;2.95;;;22.90;77.00;;;;;;5038970;28;20064;-65
2022/04/04 08:36:34;;;;;;;9.68;2.30;;;23.00;75.10;;;;;;5039167;28;20671;-68
2022/04/04 08:39:02;;;;;;;7.00;1.88;;;22.90;73.50;;;;;;5040063;28;20032;-65
2022/04/04 08:41:35;;;;;;;5.80;1.48;;;22.90;74.00;;;;;;5038052;28;20029;-67
2022/04/04 08:44:02;;;;;;;;;;;22.80;74.60;;;;;;5040670;28;20039;-65
2022/04/04 08:46:30;;;;;;;4.45;1.20;;;22.70;75.10;;;;;;5038702;28;19913;-68
2022/04/04 08:48:58;;;;;;;5.38;1.67;;;22.60;74.50;;;;;;5037201;28;20028;-69
2022/04/04 08:51:27;;;;;;;5.15;1.40;;;22.50;75.60;;;;;;5039101;28;20692;-69
2022/04/04 08:53:56;;;;;;;3.90;1.42;;;22.40;76.20;;;;;;5037443;28;20438;-64
2022/04/04 08:56:24;;;;;;;2.40;1.13;;;22.30;75.80;;;;;;5037611;28;20078;-67
2022/04/04 08:58:52;;;;;;;6.63;1.92;;;22.30;77.90;;;;;;5037242;28;20569;-72
2022/04/04 09:01:25;;;;;;;5.43;1.70;;;22.20;77.90;;;;;;5037564;28;20031;-68
2022/04/04 09:03:55;;;;;;;;;;;22.30;77.50;;;;;;5037861;28;20036;-69
2022/04/04 09:06:28;;;;;;;3.28;1.30;;;22.30;77.50;;;;;;5037760;28;20337;-67
2022/04/04 09:08:57;;;;;;;;;;;22.40;78.50;;;;;;5038745;28;20025;-64
2022/04/04 09:11:25;;;;;;;5.07;1.30;;;22.30;77.50;;;;;;5039631;28;19962;-65
2022/04/04 09:14:07;;;;;;;4.70;1.42;;;22.20;77.80;;;;;;5038674;28;20029;-65
2022/04/04 09:16:34;;;;;;;;;;;22.20;78.90;;;;;;5039966;28;20486;-65
2022/04/04 09:19:01;;;;;;;4.38;1.55;;;22.00;79.90;;;;;;5039291;28;20566;-64
2022/04/04 09:21:32;;;;;;;3.35;1.00;;;22.00;80.10;;;;;;5040257;28;20036;-68
2022/04/04 09:24:03;;;;;;;3.28;1.48;;;22.10;79.80;;;;;;5039313;28;20029;-65
2022/04/04 09:26:41;;;;;;;3.30;1.00;;;22.00;79.30;;;;;;5040437;28;20501;-66
2022/04/04 09:29:20;;;;;;;1.85;1.38;;;22.00;79.20;;;;;;5039475;28;20029;-64
2022/04/04 09:32:10;;;;;;;11.38;8.02;;;21.80;79.30;;;;;;5039596;28;20037;-70
2022/04/04 09:35:00;;;;;;;11.82;6.15;;;21.60;79.70;;;;;;5039352;28;20021;-63
2022/04/04 09:37:30;;;;;;;4.13;1.52;;;21.50;80.80;;;;;;5039918;28;20375;-68
2022/04/04 09:40:14;;;;;;;4.78;1.58;;;21.30;81.50;;;;;;5039361;28;20721;-68
2022/04/04 09:42:42;;;;;;;4.35;1.55;;;21.20;82.20;;;;;;5039596;28;20045;-64
2022/04/04 09:45:14;;;;;;;2.55;1.10;;;21.10;83.00;;;;;;5036452;28;20029;-64
2022/04/04 09:47:55;;;;;;;2.90;1.05;;;20.90;83.50;;;;;;5034432;28;20075;-63
2022/04/04 09:50:38;;;;;;;4.43;1.63;;;20.80;84.10;;;;;;5035877;28;20033;-63
2022/04/04 09:53:09;;;;;;;3.50;1.35;;;20.80;84.40;;;;;;5034189;28;20068;-63
2022/04/04 09:55:41;;;;;;;2.70;1.50;;;20.70;84.80;;;;;;5035296;28;20075;-67
2022/04/04 09:58:12;;;;;;;2.42;1.25;;;20.70;84.60;;;;;;5033723;28;20044;-67
2022/04/04 10:00:40;;;;;;;3.13;1.20;;;20.60;85.40;;;;;;5034664;28;20067;-69
2022/04/04 10:03:12;;;;;;;3.72;1.58;;;20.50;86.40;;;;;;5035127;28;20509;-69
2022/04/04 10:05:48;;;;;;;2.42;1.25;;;20.30;87.40;;;;;;5033846;28;20017;-68
2022/04/04 10:08:17;;;;;;;3.75;1.40;;;20.10;88.70;;;;;;5041051;28;20035;-63
2022/04/04 10:10:45;;;;;;;2.92;1.17;;;19.90;90.00;;;;;;5042199;28;20029;-68
2022/04/04 10:13:16;;;;;;;17.77;12.55;;;19.70;90.80;;;;;;5041859;28;20040;-68
2022/04/04 10:15:44;;;;;;;5.70;3.63;;;19.60;91.50;;;;;;5040342;28;20124;-67
2022/04/04 10:18:11;;;;;;;5.47;3.08;;;19.50;92.30;;;;;;5040927;28;20025;-63
2022/04/04 10:20:38;;;;;;;7.32;4.78;;;19.30;92.80;;;;;;5040675;28;20033;-69
2022/04/04 10:23:10;;;;;;;4.40;2.10;;;19.20;93.30;;;;;;5040408;28;20029;-70
2022/04/04 10:25:37;;;;;;;6.57;1.40;;;19.20;93.70;;;;;;5039078;28;20056;-65
2022/04/04 10:28:05;;;;;;;5.55;1.88;;;19.20;94.00;;;;;;5038468;28;20028;-71
2022/04/04 10:30:34;;;;;;;3.83;1.80;;;19.10;94.40;;;;;;5039054;28;20030;-69
2022/04/04 10:33:03;;;;;;;4.85;1.77;;;19.00;95.00;;;;;;5038742;28;20051;-70
2022/04/04 10:35:32;;;;;;;3.97;1.50;;;19.00;95.30;;;;;;5037877;28;20029;-68
2022/04/04 10:38:04;;;;;;;5.80;1.73;;;18.90;95.70;;;;;;5046092;22;20084;-65
2022/04/04 10:40:34;;;;;;;5.80;1.98;;;18.80;95.90;;;;;;5015317;28;20136;-68
2022/04/04 10:43:15;;;;;;;6.13;1.50;;;18.80;96.10;;;;;;5009515;28;20049;-68
2022/04/04 10:45:51;;;;;;;10.77;2.38;;;18.80;96.50;;;;;;5014953;28;20073;-64
2022/04/04 10:48:20;;;;;;;6.22;1.70;;;18.90;96.80;;;;;;5009588;28;20112;-66
2022/04/04 10:50:48;;;;;;;4.28;1.77;;;19.00;96.90;;;;;;5014872;28;20095;-68
2022/04/04 10:53:15;;;;;;;5.25;1.70;;;18.90;96.80;;;;;;5012788;28;20467;-63
2022/04/04 10:55:47;;;;;;;7.82;2.03;;;18.80;97.10;;;;;;5013549;28;20033;-70
2022/04/04 10:58:17;;;;;;;;;;;18.70;97.80;;;;;;5011492;28;20127;-69
2022/04/04 11:00:57;;;;;;;4.80;2.22;;;18.80;99.90;;;;;;5010830;28;20051;-70
2022/04/04 11:03:40;;;;;;;8.00;1.92;;;19.10;99.00;;;;;;5010125;28;20045;-69
2022/04/04 11:09:00;;;;;;;8.27;1.95;;;19.10;99.70;;;;;;5008155;28;20527;-66
2022/04/04 11:11:50;;;;;;;16.27;3.20;;;19.00;99.50;;;;;;5011057;28;20029;-67
2022/04/04 11:14:42;;;;;;;9.13;1.95;;;18.90;99.90;;;;;;5013344;28;20436;-67
2022/04/04 11:17:13;;;;;;;12.95;2.35;;;18.90;99.40;;;;;;5006410;28;20045;-66
2022/04/04 11:20:36;;;;;;;15.43;3.50;;;18.80;99.90;;;;;;5011943;28;20041;-66
2022/04/04 11:23:11;;;;;;;10.35;3.45;;;18.90;99.20;;;;;;4956895;28;20326;-68
2022/04/04 11:25:52;;;;;;;9.02;3.05;;;18.80;99.90;;;;;;4959572;28;20129;-70
2022/04/04 11:28:22;;;;;;;13.05;3.58;;;18.60;99.90;;;;;;4959603;28;20039;-72
2022/04/04 11:30:53;;;;;;;15.10;2.83;;;18.60;99.90;;;;;;4936616;28;20030;-66
2022/04/04 11:33:25;;;;;;;8.23;2.30;;;18.60;99.90;;;;;;4945466;28;20046;-66
2022/04/04 11:35:54;;;;;;;7.38;2.50;;;18.50;99.90;;;;;;4962595;28;20101;-65
2022/04/04 11:38:22;;;;;;;7.38;3.08;;;18.30;99.90;;;;;;4955916;28;20051;-64
2022/04/04 11:40:55;;;;;;;8.32;2.53;;;18.20;99.90;;;;;;4956842;28;20055;-69
2022/04/04 11:43:24;;;;;;;14.15;3.30;;;18.10;99.90;;;;;;4961010;28;20035;-65
2022/04/04 11:45:53;;;;;;;11.88;3.38;;;18.00;99.90;;;;;;4963185;28;20031;-65
2022/04/04 11:48:25;;;;;;;10.95;4.47;;;17.90;99.90;;;;;;4956809;28;20186;-67
2022/04/04 11:50:59;;;;;;;18.40;2.60;;;17.90;99.90;;;;;;4958237;28;20026;-68
2022/04/04 11:53:28;;;;;;;10.27;2.92;;;18.00;99.90;;;;;;4956818;28;20094;-68
2022/04/04 11:56:03;;;;;;;7.90;2.40;;;18.00;99.90;;;;;;4957773;28;20062;-65
2022/04/04 11:58:31;;;;;;;16.42;5.10;;;18.00;99.90;;;;;;4960219;28;20241;-66
2022/04/04 12:01:06;;;;;;;4.80;1.92;;;17.80;99.90;;;;;;5001749;28;20025;-66
2022/04/04 12:03:40;;;;;;;11.18;3.17;;;17.80;99.90;;;;;;5000571;28;20032;-69
2022/04/04 12:06:07;;;;;;;10.77;4.55;;;17.70;99.90;;;;;;5014644;28;20030;-66
2022/04/04 12:08:42;;;;;;;13.55;3.70;;;17.80;99.90;;;;;;4999460;28;20076;-65
2022/04/04 12:11:10;;;;;;;11.18;2.97;;;17.80;99.90;;;;;;5018692;28;20025;-68
2022/04/04 12:13:56;;;;;;;5.05;1.92;;;17.90;99.90;;;;;;5001201;28;20403;-63
2022/04/04 12:16:25;;;;;;;6.82;4.00;;;17.90;99.90;;;;;;5001410;28;20069;-67
2022/04/04 12:19:05;;;;;;;13.10;4.55;;;17.80;99.90;;;;;;4999036;28;20030;-71
2022/04/04 12:21:33;;;;;;;14.00;5.00;;;17.70;99.90;;;;;;4998124;28;20105;-69
2022/04/04 12:27:17;;;;;;;29.08;7.15;;;17.60;99.90;;;;;;4965021;28;20061;-70
2022/04/04 12:29:46;;;;;;;20.17;6.30;;;17.80;99.90;;;;;;4964079;28;20046;-69
2022/04/04 12:32:16;;;;;;;5.72;3.22;;;17.80;99.90;;;;;;4963140;28;20378;-64
2022/04/04 12:35:15;;;;;;;4.88;2.63;;;17.90;99.90;;;;;;4963399;28;20043;-66
2022/04/04 12:37:44;;;;;;;12.77;4.28;;;17.80;99.90;;;;;;4947011;28;20047;-64
2022/04/04 12:40:23;;;;;;;10.43;5.15;;;17.80;99.90;;;;;;4943683;28;20129;-66
2022/04/04 12:43:05;;;;;;;22.02;15.43;;;17.70;99.90;;;;;;4947130;28;20035;-71
2022/04/04 12:45:33;;;;;;;9.10;3.88;;;17.50;99.90;;;;;;4949252;28;20496;-67
2022/04/04 12:48:07;;;;;;;7.35;2.72;;;17.30;99.90;;;;;;4954152;28;20031;-69
2022/04/04 12:50:42;;;;;;;6.45;3.00;;;17.20;99.90;;;;;;4955671;28;20437;-65
2022/04/04 12:53:14;;;;;;;5.68;2.45;;;17.10;99.90;;;;;;4950444;28;20549;-69
2022/04/04 12:55:45;;;;;;;4.90;1.90;;;17.10;99.90;;;;;;4948977;28;20047;-67
2022/04/04 12:58:20;;;;;;;5.80;2.10;;;17.30;99.90;;;;;;4947724;28;20035;-68
2022/04/04 13:00:48;;;;;;;5.65;2.10;;;17.20;99.90;;;;;;4955760;28;20046;-73
2022/04/04 13:03:18;;;;;;;7.70;2.53;;;17.20;99.90;;;;;;4982683;28;20080;-67
2022/04/04 13:05:52;;;;;;;5.72;2.35;;;17.10;99.90;;;;;;4981768;28;20030;-68
2022/04/04 13:08:25;;;;;;;12.77;2.88;;;17.00;99.90;;;;;;4983258;28;20085;-67